Flight Track Log - Related Links

Times and Time Zones

All times are in EDT time to prevent confusion due to time zone crossing. See the N7711Y flight status page for this flight to view local times or setup timezone preferences in your user account.

Time Position Orientation Groundspeed Altitude Reporting Facility
EDT Latitude Longitude Course Direction KTS MPH feet Rate Location/Type
Sun 01:57:14 PM 34.8361 -88.5861 141° Southeast 157 181 3,000  Level Memphis Center
Sun 01:58:14 PM 34.8006 -88.5842 177° South 134 154 4,100 1,200 Climbing Memphis Center
Sun 01:59:14 PM 34.7711 -88.5672 155° Southeast 122 140 5,400 1,250 Climbing Memphis Center
Sun 02:00:14 PM 34.7436 -88.5475 149° Southeast 115 132 6,600 1,250 Climbing Memphis Center
Sun 02:01:14 PM 34.7144 -88.5381 165° South 165 190 7,900 1,250 Climbing Memphis Center
Sun 02:02:00 PM 34.7696 -88.3561 141° Southeast  Level Estimated
Sun 02:02:14 PM 34.6811 -88.5439 188° South 132 152 9,100  Level Memphis Center
Sun 02:03:14 PM 34.6500 -88.5544 196° South 120 138 10,200 1,000 Climbing Memphis Center
Sun 02:04:14 PM 34.6167 -88.5653 195° South 127 146 11,100 450 Climbing Memphis Center
Sun 02:05:14 PM 34.5711 -88.5789 194° South 147 169 11,100  Level Memphis Center
Sun 02:06:14 PM 34.5253 -88.5925 194° South 164 189 11,100  Level Memphis Center
Sun 02:07:14 PM 34.4753 -88.6061 193° South 174 200 11,100  Level Memphis Center
Sun 02:08:14 PM 34.4297 -88.6197 194° South 179 206 11,100  Level Memphis Center
Sun 02:09:14 PM 34.3839 -88.6256 186° South 179 206 11,100  Level Memphis Center
Sun 02:10:14 PM 34.3622 -88.5733 117° Southeast 142 163 11,100 -50 Level Memphis Center
Sun 02:11:14 PM 34.3386 -88.5258 121° Southeast 142 163 11,000  Descending Memphis Center
Sun 02:12:14 PM 34.3150 -88.4761 120° Southeast 155 178 11,100 50 Climbing Memphis Center
Sun 02:13:14 PM 34.2933 -88.4289 119° Southeast 160 184 11,100  Level Memphis Center
Sun 02:14:14 PM 34.2717 -88.3817 119° Southeast 160 184 11,100  Level Memphis Center
Sun 02:15:14 PM 34.2500 -88.3369 120° Southeast 160 184 11,100  Level Memphis Center
Sun 02:16:14 PM 34.2264 -88.2897 121° Southeast 160 184 11,100  Level Memphis Center
Sun 02:17:14 PM 34.2067 -88.2425 117° Southeast 165 190 11,100  Level Memphis Center
Sun 02:18:14 PM 34.1831 -88.1928 120° Southeast 182 209 11,100  Level Memphis Center
Sun 02:19:14 PM 34.1614 -88.1456 119° Southeast 171 197 11,100  Level Memphis Center
Sun 02:20:14 PM 34.1397 -88.1011 120° Southeast 161 185 11,100  Level Memphis Center
Sun 02:21:14 PM 34.1178 -88.0539 119° Southeast 161 185 11,100 -133 Level Memphis Center
Sun 02:21:44 PM 34.1069 -88.0292 118° Southeast 153 176 10,900 -100 Descending Memphis Center
Sun 02:22:14 PM 34.0983 -88.0119 121° Southeast 161 185 11,000  Climbing Memphis Center
Sun 02:22:45 PM 34.0875 -87.9844 115° Southeast 151 174 10,900 -70 Descending Memphis Center
Sun 02:23:40 PM 34.0658 -87.9475 125° Southeast 149 171 10,900 67 Level Memphis Center
Sun 02:24:14 PM 34.0508 -87.9306 137° Southeast 155 178 11,000  Climbing Memphis Center
Sun 02:24:46 PM 34.0336 -87.9083 133° Southeast 146 168 10,900 -69 Descending Memphis Center
Sun 02:25:41 PM 34.0081 -87.8764 134° Southeast 151 174 10,900 68 Level Memphis Center
Sun 02:26:14 PM 33.9889 -87.8544 136° Southeast 155 178 11,000  Climbing Memphis Center
Sun 02:26:48 PM 33.9758 -87.8322 125° Southeast 153 176 10,900 -63 Descending Memphis Center
Sun 02:27:49 PM 33.9419 -87.8058 147° Southeast 150 173 10,900  Level Memphis Center
Sun 02:28:49 PM 33.9078 -87.7767 145° Southeast 151 174 10,900  Level Memphis Center
Sun 02:29:50 PM 33.8717 -87.7453 144° Southeast 152 175 10,900  Level Memphis Center
Sun 02:30:51 PM 33.8378 -87.7139 142° Southeast 152 175 10,900  Level Memphis Center
Sun 02:31:58 PM 33.8017 -87.6825 144° Southeast 152 175 10,900  Level Memphis Center
Sun 02:32:58 PM 33.7633 -87.6511 146° Southeast 152 175 10,900  Level Memphis Center
Sun 02:33:59 PM 33.7253 -87.6272 152° Southeast 153 176 10,900  Level Memphis Center
Sun 02:35:00 PM 33.6894 -87.6086 157° South 150 173 10,900  Level Memphis Center
Sun 02:36:01 PM 33.6514 -87.5897 158° South 151 174 10,900  Level Memphis Center
Sun 02:37:01 PM 33.6111 -87.5611 149° Southeast 154 177 10,900 303 Level Memphis Center
Sun 02:39:19 PM 33.5411 -87.4956 142° Southeast 145 167 11,900 424 Climbing Atlanta Center
Sun 02:40:19 PM 33.5217 -87.4525 118° Southeast 140 161 12,300 400 Climbing Atlanta Center
Sun 02:41:19 PM 33.5039 -87.4119 118° Southeast 140 161 12,700 400 Climbing Atlanta Center
Sun 02:42:19 PM 33.4819 -87.3711 123° Southeast 140 161 13,100 200 Climbing Atlanta Center
Sun 02:43:19 PM 33.4622 -87.3281 119° Southeast 146 168 13,100  Level Atlanta Center
Sun 02:44:19 PM 33.4406 -87.2875 123° Southeast 151 174 13,100  Level Atlanta Center
Sun 02:45:19 PM 33.4167 -87.2417 122° Southeast 151 174 13,100  Level Atlanta Center
Sun 02:46:19 PM 33.3947 -87.2011 123° Southeast 151 174 13,100  Level Atlanta Center
Sun 02:47:19 PM 33.3750 -87.1533 116° Southeast 151 174 13,100  Level Atlanta Center
Sun 02:48:19 PM 33.3511 -87.1100 123° Southeast 151 174 13,100  Level Atlanta Center
Sun 02:49:19 PM 33.3314 -87.0647 118° Southeast 151 174 13,100  Level Atlanta Center
Sun 02:50:19 PM 33.3075 -87.0189 122° Southeast 151 174 13,100  Level Atlanta Center
Sun 02:51:19 PM 33.2833 -86.9758 124° Southeast 146 168 13,100  Level Atlanta Center
Sun 02:52:19 PM 33.2617 -86.9281 118° Southeast 146 168 13,100  Level Atlanta Center
Sun 02:53:19 PM 33.2394 -86.8850 122° Southeast 151 174 13,100  Level Atlanta Center
Sun 02:54:19 PM 33.2156 -86.8422 124° Southeast 151 174 13,100  Level Atlanta Center
Sun 02:55:19 PM 33.1936 -86.7942 119° Southeast 151 174 13,100  Level Atlanta Center
Sun 02:56:19 PM 33.1717 -86.7514 121° Southeast 151 174 13,100  Level Atlanta Center
Sun 02:57:19 PM 33.1475 -86.7058 122° Southeast 151 174 13,100  Level Atlanta Center
Sun 02:58:19 PM 33.1256 -86.6606 120° Southeast 151 174 13,100  Level Atlanta Center
Sun 02:59:19 PM 33.1017 -86.6128 121° Southeast 151 174 13,100  Level Atlanta Center
Sun 03:00:19 PM 33.0794 -86.5700 122° Southeast 151 174 13,100  Level Atlanta Center
Sun 03:01:19 PM 33.0553 -86.5222 121° Southeast 151 174 13,100  Level Atlanta Center
Sun 03:02:19 PM 33.0333 -86.4769 120° Southeast 151 174 13,100  Level Atlanta Center
Sun 03:03:19 PM 33.0133 -86.4392 122° Southeast 151 174 13,100  Level Atlanta Center
Sun 03:04:19 PM 32.9911 -86.3917 119° Southeast 151 174 13,100  Level Atlanta Center
Sun 03:05:19 PM 32.9669 -86.3464 122° Southeast 156 180 13,100 50 Level Atlanta Center
Sun 03:06:19 PM 32.9428 -86.3011 122° Southeast 156 180 13,200 50 Climbing Atlanta Center
Sun 03:07:19 PM 32.9186 -86.2536 121° Southeast 156 180 13,200  Level Atlanta Center
Sun 03:08:19 PM 32.8964 -86.2083 120° Southeast 156 180 13,200  Level Atlanta Center
Sun 03:09:19 PM 32.8764 -86.1658 119° Southeast 156 180 13,200  Level Atlanta Center
Sun 03:10:19 PM 32.8500 -86.1183 123° Southeast 161 185 13,200  Level Atlanta Center
Sun 03:11:19 PM 32.8214 -86.0781 130° Southeast 161 185 13,200  Level Atlanta Center
Sun 03:12:19 PM 32.7950 -86.0381 128° Southeast 161 185 13,200 -33 Level Atlanta Center
Sun 03:14:19 PM 32.7378 -85.9575 130° Southeast 161 185 13,100 -33 Descending Atlanta Center
Sun 03:15:19 PM 32.7133 -85.9103 122° Southeast 161 185 13,100  Level Atlanta Center
Sun 03:17:19 PM 32.6667 -85.8203 122° Southeast 161 185 13,100  Level Atlanta Center
Sun 03:18:19 PM 32.6444 -85.7731 119° Southeast 161 185 13,100  Level Atlanta Center
Sun 03:19:19 PM 32.6200 -85.7281 123° Southeast 161 185 13,100  Level Atlanta Center
Sun 03:20:19 PM 32.5978 -85.6808 119° Southeast 166 191 13,100  Level Atlanta Center
Sun 03:21:19 PM 32.5753 -85.6361 121° Southeast 166 191 13,100  Level Atlanta Center
Sun 03:22:19 PM 32.5508 -85.5889 122° Southeast 166 191 13,100  Level Atlanta Center
Sun 03:23:19 PM 32.5286 -85.5417 119° Southeast 166 191 13,100  Level Atlanta Center
Sun 03:24:19 PM 32.5039 -85.4994 125° Southeast 166 191 13,100  Level Atlanta Center
Sun 03:25:19 PM 32.4794 -85.4522 122° Southeast 166 191 13,100  Level Atlanta Center
Sun 03:26:19 PM 32.4550 -85.4075 123° Southeast 161 185 13,100  Level Atlanta Center
Sun 03:27:19 PM 32.4325 -85.3603 119° Southeast 161 185 13,100  Level Atlanta Center
Sun 03:28:19 PM 32.4081 -85.3158 123° Southeast 161 185 13,100  Level Atlanta Center
Sun 03:29:19 PM 32.3875 -85.2711 119° Southeast 161 185 13,100  Level Atlanta Center
Sun 03:30:19 PM 32.3608 -85.2264 125° Southeast 166 191 13,100  Level Atlanta Center
Sun 03:31:19 PM 32.3403 -85.1819 119° Southeast 166 191 13,100  Level Atlanta Center
Sun 03:32:19 PM 32.3158 -85.1375 123° Southeast 166 191 13,100  Level Atlanta Center
Sun 03:33:19 PM 32.2931 -85.0956 123° Southeast 161 185 13,100  Level Atlanta Center
Sun 03:34:19 PM 32.2686 -85.0483 121° Southeast 161 185 13,100  Level Atlanta Center
Sun 03:35:19 PM 32.2417 -84.9992 123° Southeast 156 180 13,100  Level Atlanta Center
Sun 03:36:19 PM 32.2192 -84.9619 126° Southeast 156 180 13,100  Level Atlanta Center
Sun 03:37:19 PM 32.1986 -84.9175 119° Southeast 156 180 13,100 -24 Level Atlanta Center
Sun 03:40:25 PM 32.1256 -84.7742 121° Southeast 155 178 13,000 -24 Descending Jacksonville Center
Sun 03:41:26 PM 32.1011 -84.7269 121° Southeast 155 178 13,000  Level Jacksonville Center
Sun 03:42:25 PM 32.0767 -84.6847 124° Southeast 161 185 13,000  Level Jacksonville Center
Sun 03:43:25 PM 32.0522 -84.6378 122° Southeast 161 185 13,000  Level Jacksonville Center
Sun 03:44:25 PM 32.0278 -84.5883 120° Southeast 161 185 13,000  Level Jacksonville Center
Sun 03:45:25 PM 32.0033 -84.5414 122° Southeast 161 185 13,000  Level Jacksonville Center
Sun 03:46:26 PM 31.9789 -84.4969 123° Southeast 166 191 13,000 50 Level Jacksonville Center
Sun 03:47:26 PM 31.9525 -84.4497 123° Southeast 166 191 13,100  Climbing Jacksonville Center
Sun 03:48:26 PM 31.9300 -84.4031 120° Southeast 171 197 13,000 -50 Descending Jacksonville Center
Sun 03:49:26 PM 31.9033 -84.3561 124° Southeast 171 197 13,000  Level Jacksonville Center
Sun 03:50:26 PM 31.8789 -84.3067 120° Southeast 171 197 13,000  Level Jacksonville Center
Sun 03:51:26 PM 31.8522 -84.2597 124° Southeast 171 197 13,000  Level Jacksonville Center
Sun 03:52:25 PM 31.8297 -84.2131 120° Southeast 171 197 13,000  Level Jacksonville Center
Sun 03:53:26 PM 31.8053 -84.1661 121° Southeast 176 203 13,000  Level Jacksonville Center
Sun 03:54:25 PM 31.7786 -84.1194 124° Southeast 176 203 13,000  Level Jacksonville Center
Sun 03:55:26 PM 31.7539 -84.0728 122° Southeast 176 203 13,000 50 Level Jacksonville Center
Sun 03:56:26 PM 31.7292 -84.0261 122° Southeast 176 203 13,100  Climbing Jacksonville Center
Sun 03:57:18 PM 31.7067 -83.9867 124° Southeast 169 194 13,000 -68 Descending Jacksonville Center
Sun 03:57:54 PM 31.6903 -83.9572 123° Southeast 169 194 13,000 88 Level Jacksonville Center
Sun 03:58:26 PM 31.6778 -83.9350 123° Southeast 171 197 13,100 65 Climbing Jacksonville Center
Sun 03:59:26 PM 31.6533 -83.8858 120° Southeast 171 197 13,100 -50 Level Jacksonville Center
Sun 04:00:26 PM 31.6306 -83.8394 120° Southeast 177 204 13,000  Descending Jacksonville Center
Sun 04:00:56 PM 31.6119 -83.8172 135° Southeast 173 199 13,100 100 Climbing Jacksonville Center
Sun 04:01:26 PM 31.6039 -83.7950 113° Southeast 177 204 13,100  Level Jacksonville Center
Sun 04:01:57 PM 31.5872 -83.7681 126° Southeast 171 197 13,100  Level Jacksonville Center
Sun 04:02:57 PM 31.5606 -83.7217 124° Southeast 172 198 13,100  Level Jacksonville Center
Sun 04:03:58 PM 31.5356 -83.6725 121° Southeast 172 198 13,100  Level Jacksonville Center
Sun 04:04:58 PM 31.5108 -83.6261 122° Southeast 170 196 13,100  Level Jacksonville Center
Sun 04:05:59 PM 31.4842 -83.5772 123° Southeast 171 197 13,100  Level Jacksonville Center
Sun 04:07:00 PM 31.4592 -83.5283 121° Southeast 170 196 13,100  Level Jacksonville Center
Sun 04:08:00 PM 31.4428 -83.4794 111° Southeast 167 192 13,100  Level Jacksonville Center
Sun 04:09:01 PM 31.4306 -83.4233 104° East 169 194 13,100  Level Jacksonville Center
Sun 04:10:02 PM 31.4203 -83.3722 103° East 169 194 13,100  Level Jacksonville Center
Sun 04:11:02 PM 31.4100 -83.3161 102° East 169 194 13,100  Level Jacksonville Center
Sun 04:12:03 PM 31.3808 -83.2769 131° Southeast 164 189 13,100  Level Jacksonville Center
Sun 04:13:03 PM 31.3539 -83.2283 123° Southeast 166 191 13,100  Level Jacksonville Center
Sun 04:14:04 PM 31.3247 -83.1869 130° Southeast 169 194 13,100  Level Jacksonville Center
Sun 04:15:05 PM 31.2997 -83.1406 122° Southeast 170 196 13,100  Level Jacksonville Center
Sun 04:16:05 PM 31.2728 -83.0967 126° Southeast 168 193 13,100  Level Jacksonville Center
Sun 04:17:06 PM 31.2456 -83.0481 123° Southeast 167 192 13,100  Level Jacksonville Center
Sun 04:18:02 PM 31.2269 -83.0092 119° Southeast 166 191 13,100  Level Jacksonville Center
Sun 04:19:02 PM 31.2019 -82.9656 124° Southeast 166 191 13,100  Level Jacksonville Center
Sun 04:20:02 PM 31.1747 -82.9217 126° Southeast 166 191 13,100  Level Jacksonville Center
Sun 04:21:02 PM 31.1497 -82.8781 124° Southeast 166 191 13,100  Level Jacksonville Center
Sun 04:22:02 PM 31.1225 -82.8344 126° Southeast 166 191 13,100  Level Jacksonville Center
Sun 04:23:02 PM 31.0994 -82.7883 120° Southeast 172 198 13,100 -50 Level Jacksonville Center
Sun 04:24:02 PM 31.0661 -82.7447 132° Southeast 166 191 13,000 -50 Descending Jacksonville Center
Sun 04:25:02 PM 31.0411 -82.6986 122° Southeast 161 185 13,000  Level Jacksonville Center
Sun 04:26:02 PM 31.0158 -82.6550 124° Southeast 161 185 13,000  Level Jacksonville Center
Sun 04:27:02 PM 30.9886 -82.6164 129° Southeast 161 185 13,000  Level Jacksonville Center
Sun 04:28:02 PM 30.9656 -82.5703 120° Southeast 161 185 13,000 -300 Level Jacksonville Center
Sun 04:29:02 PM 30.9383 -82.5269 126° Southeast 161 185 12,400 -600 Descending Jacksonville Center
Sun 04:30:02 PM 30.9111 -82.4786 123° Southeast 169 194 11,800 -600 Descending Jacksonville Center
Sun 04:31:02 PM 30.8775 -82.4350 132° Southeast 174 200 11,200 -600 Descending Jacksonville Center
Sun 04:32:02 PM 30.8522 -82.3892 123° Southeast 180 207 10,600 -600 Descending Jacksonville Center
Sun 04:33:02 PM 30.8583 -82.3264 84° East 175 201 10,000 -600 Descending Jacksonville Center
Sun 04:34:02 PM 30.8664 -82.2706 80° East 170 196 9,400 -600 Descending Jacksonville Center
Sun 04:35:02 PM 30.8597 -82.2222 99° East 165 190 8,800 -600 Descending Jacksonville Center
Sun 04:36:02 PM 30.8283 -82.1836 133° Southeast 148 170 8,200 -600 Descending Jacksonville Center
Sun 04:37:02 PM 30.8008 -82.1428 128° Southeast 153 176 7,600 -600 Descending Jacksonville Center
Sun 04:38:02 PM 30.7756 -82.1019 126° Southeast 153 176 7,000 -650 Descending Jacksonville Center
Sun 04:39:02 PM 30.7503 -82.0633 127° Southeast 153 176 6,300 -600 Descending Jacksonville Center
Sun 04:40:32 PM 30.7122 -82.0058 128° Southeast 151 174 5,500 -600 Descending Jacksonville Center
Sun 04:41:32 PM 30.6869 -81.9697 129° Southeast 149 171 4,800 -614 Descending Jacksonville Center
Sun 04:42:39 PM 30.6575 -81.9267 128° Southeast 142 163 4,200 -358 Descending Jacksonville Center
Sun 04:43:46 PM 30.6300 -81.8931 134° Southeast 135 155 4,000 -99 Descending Jacksonville Center
Sun 04:44:40 PM 30.6069 -81.8644 133° Southeast 132 152 4,000 -52 Level Jacksonville Center
Sun 04:45:41 PM 30.5836 -81.8308 129° Southeast 129 148 3,900 -52 Descending Jacksonville Center
Sun 04:46:36 PM 30.5625 -81.8044 133° Southeast 121 139 3,900  Level Jacksonville Center
Sun 04:47:36 PM 30.5372 -81.7736 134° Southeast 127 146 3,900  Level Jacksonville Center
Sun 04:48:37 PM 30.5139 -81.7472 136° Southeast 124 143 3,900 49 Level Jacksonville Center
Sun 04:49:38 PM 30.4908 -81.7139 129° Southeast 121 139 4,000 52 Climbing Jacksonville Center
Sun 04:50:32 PM 30.4697 -81.6850 130° Southeast 132 152 4,000 -298 Level Jacksonville Center
Sun 04:51:39 PM 30.4442 -81.6542 134° Southeast 129 148 3,400 -627 Descending Jacksonville Center
Sun 04:52:46 PM 30.4167 -81.6183 132° Southeast 127 146 2,600 -750 Descending Jacksonville Center
Sun 04:53:47 PM 30.3978 -81.5919 130° Southeast 101 116 1,800 -639 Descending Jacksonville Center
Sun 04:54:48 PM 30.3808 -81.5706 133° Southeast 101 116 1,300 -590 Descending Jacksonville Center
Sun 04:55:49 PM 30.3594 -81.5397 129° Southeast 112 129 600 -689 Descending Jacksonville Center
Sun 04:57:00 PM 30.3363 -81.5144 115° Southeast  Level Estimated
Sun 05:04:00 PM 30.3363 -81.5144 115° Southeast  Level Estimated

Login

Don't have an account? Register now (free) for customized features, flight alerts, and more!